Time;durP1;ratioP1;P1;durP2;ratioP2;P2;SDS_P1;SDS_P2;PMS_P1;PMS_P2;Temp;Humidity;BMP_temperature;BMP_pressure;BME280_temperature;BME280_humidity;BME280_pressure;Samples;Min_cycle;Max_cycle;Signal;HPM_P1;HPM_P2
2023/08/09 00:02:17;;;;;;;0.40;0.20;;;;;;;17.43;100.00;99970.75;4999909;28;20453;-49
2023/08/09 00:04:44;;;;;;;0.40;0.20;;;;;;;17.21;100.00;99975.72;5003589;28;20460;-49
2023/08/09 00:07:10;;;;;;;0.40;0.30;;;;;;;17.23;100.00;99974.66;5006313;28;20492;-49
2023/08/09 00:09:37;;;;;;;0.40;0.20;;;;;;;17.27;100.00;99967.25;4996836;28;20501;-48
2023/08/09 00:12:03;;;;;;;0.40;0.20;;;;;;;17.24;100.00;99965.63;5006325;28;20798;-48
2023/08/09 00:14:30;;;;;;;0.40;0.20;;;;;;;17.26;100.00;99970.91;5003189;28;20487;-49
2023/08/09 00:16:56;;;;;;;0.40;0.20;;;;;;;17.40;100.00;99954.81;4999472;28;20448;-48
2023/08/09 00:19:24;;;;;;;0.40;0.20;;;;;;;17.23;100.00;99955.84;5002894;28;20450;-49
2023/08/09 00:21:50;;;;;;;0.40;0.20;;;;;;;17.33;100.00;99954.34;5006078;28;20454;-48
2023/08/09 00:24:17;;;;;;;0.40;0.20;;;;;;;17.26;100.00;99950.28;5003103;28;20543;-48
2023/08/09 00:26:44;;;;;;;0.40;0.20;;;;;;;17.32;100.00;99957.13;4999360;28;20583;-48
2023/08/09 00:29:10;;;;;;;0.40;0.20;;;;;;;17.34;100.00;99950.69;5002477;28;20540;-48
2023/08/09 00:31:36;;;;;;;0.40;0.20;;;;;;;17.27;100.00;99951.16;5005951;28;20477;-48
2023/08/09 00:34:07;;;;;;;0.40;0.20;;;;;;;17.37;100.00;99947.81;5003478;28;20901;-48
2023/08/09 00:36:34;;;;;;;0.40;0.20;;;;;;;17.01;100.00;99939.34;4999043;28;20449;-49
2023/08/09 00:39:01;;;;;;;0.40;0.20;;;;;;;17.26;100.00;99944.91;5010180;28;20448;-48
2023/08/09 00:41:27;;;;;;;0.40;0.20;;;;;;;17.17;100.00;99935.63;4999389;28;20472;-48
2023/08/09 00:43:54;;;;;;;0.40;0.20;;;;;;;17.11;100.00;99929.75;5001194;28;20464;-49
2023/08/09 00:46:22;;;;;;;0.40;0.20;;;;;;;17.10;100.00;99936.06;5011727;28;20536;-48
2023/08/09 00:48:49;;;;;;;0.40;0.20;;;;;;;16.90;100.00;99933.75;5000079;28;20854;-50
2023/08/09 00:51:15;;;;;;;0.40;0.20;;;;;;;17.10;100.00;99925.31;4999999;28;20474;-48
2023/08/09 00:53:42;;;;;;;0.40;0.20;;;;;;;17.08;100.00;99924.56;4998506;28;20449;-49
2023/08/09 00:56:08;;;;;;;0.40;0.20;;;;;;;16.80;100.00;99922.69;4999061;28;20453;-48
2023/08/09 00:58:35;;;;;;;0.40;0.20;;;;;;;16.85;100.00;99934.00;4999697;28;20453;-48
2023/08/09 01:01:01;;;;;;;0.40;0.20;;;;;;;17.04;100.00;99928.41;5005626;28;20838;-48
2023/08/09 01:03:28;;;;;;;0.40;0.20;;;;;;;17.15;100.00;99925.94;5005287;28;20815;-48
2023/08/09 01:06:06;;;;;;;0.40;0.20;;;;;;;17.09;100.00;99928.97;4999423;28;20479;-48
2023/08/09 01:08:40;;;;;;;0.40;0.20;;;;;;;17.18;100.00;99925.72;5000805;28;20473;-48
2023/08/09 01:11:24;;;;;;;0.40;0.20;;;;;;;17.12;100.00;99926.09;5001891;28;21044;-48
2023/08/09 01:13:52;;;;;;;0.40;0.20;;;;;;;16.97;100.00;99932.41;4999040;28;20872;-48
2023/08/09 01:16:20;;;;;;;0.40;0.20;;;;;;;16.98;100.00;99932.31;4998913;28;20567;-49
2023/08/09 01:18:50;;;;;;;0.40;0.20;;;;;;;17.18;100.00;99939.16;5005786;28;20453;-48
2023/08/09 01:21:19;;;;;;;0.40;0.20;;;;;;;16.98;100.00;99932.31;5005546;28;20559;-48
2023/08/09 01:23:46;;;;;;;0.40;0.20;;;;;;;17.14;100.00;99930.44;4986716;28;20519;-48
2023/08/09 01:26:13;;;;;;;0.40;0.20;;;;;;;16.92;100.00;99923.78;4998877;28;20453;-48
2023/08/09 01:28:40;;;;;;;0.40;0.20;;;;;;;16.95;100.00;99924.44;5004830;28;20493;-48
2023/08/09 01:31:06;;;;;;;0.40;0.20;;;;;;;17.04;100.00;99917.66;5005956;28;20495;-50
2023/08/09 01:33:33;;;;;;;0.40;0.20;;;;;;;17.04;100.00;99923.03;4999767;28;20452;-50
2023/08/09 01:36:05;;;;;;;0.40;0.20;;;;;;;17.04;100.00;99933.78;4998917;28;20449;-50
2023/08/09 01:38:47;;;;;;;0.40;0.20;;;;;;;16.98;100.00;99932.31;5008379;28;20531;-50
2023/08/09 01:41:15;;;;;;;0.40;0.20;;;;;;;16.97;100.00;99930.59;4999108;28;20475;-50
2023/08/09 01:43:43;;;;;;;0.40;0.20;;;;;;;16.98;100.00;99929.63;5004998;28;20449;-50
2023/08/09 01:46:10;;;;;;;0.40;0.20;;;;;;;17.20;100.00;99923.81;5012778;28;20444;-50
2023/08/09 01:48:36;;;;;;;0.40;0.20;;;;;;;17.21;100.00;99914.78;5004840;28;20492;-50
2023/08/09 01:51:03;;;;;;;0.40;0.20;;;;;;;16.88;100.00;99923.97;5008894;28;20473;-50
2023/08/09 01:53:30;;;;;;;0.40;0.20;;;;;;;16.97;100.00;99927.91;5006344;28;20775;-50
2023/08/09 01:55:56;;;;;;;0.40;0.20;;;;;;;17.00;100.00;99926.88;5002043;28;20452;-50
2023/08/09 01:58:23;;;;;;;0.40;0.20;;;;;;;17.14;100.00;99918.84;5004566;28;20957;-50
2023/08/09 02:00:49;;;;;;;0.40;0.20;;;;;;;17.11;100.00;99919.00;5008707;28;20495;-50
2023/08/09 02:03:16;;;;;;;0.40;0.20;;;;;;;17.04;100.00;99920.34;5006433;28;20476;-50
2023/08/09 02:05:42;;;;;;;0.40;0.20;;;;;;;16.92;100.00;99924.63;5002546;28;20538;-50
2023/08/09 02:08:09;;;;;;;0.40;0.20;;;;;;;16.94;100.00;99933.47;5005492;28;20525;-50
2023/08/09 02:10:35;;;;;;;0.40;0.20;;;;;;;16.99;100.00;99942.09;5001815;28;20476;-50
2023/08/09 02:13:02;;;;;;;0.40;0.20;;;;;;;16.97;100.00;99932.41;5004021;28;20935;-50
2023/08/09 02:15:28;;;;;;;0.40;0.20;;;;;;;17.00;100.00;99938.47;5008547;28;20450;-50
2023/08/09 02:17:58;;;;;;;0.40;0.20;;;;;;;16.97;100.00;99941.31;5006411;28;20449;-50
2023/08/09 02:20:25;;;;;;;0.40;0.20;;;;;;;17.13;100.00;99938.56;5001371;28;20997;-50
2023/08/09 02:22:51;;;;;;;0.40;0.20;;;;;;;17.15;100.00;99940.22;4991643;28;20537;-50
2023/08/09 02:25:18;;;;;;;0.40;0.20;;;;;;;17.08;100.00;99940.69;5006909;28;21006;-50
2023/08/09 02:27:44;;;;;;;0.40;0.20;;;;;;;17.08;100.00;99936.16;5006910;28;20580;-50
2023/08/09 02:30:13;;;;;;;0.40;0.20;;;;;;;17.14;100.00;99934.94;5001281;28;20985;-50
2023/08/09 02:32:39;;;;;;;0.40;0.20;;;;;;;17.24;100.00;99943.28;5002834;28;20783;-50
2023/08/09 02:35:06;;;;;;;0.40;0.20;;;;;;;17.25;100.00;99940.50;5008085;28;20457;-50
2023/08/09 02:37:34;;;;;;;0.40;0.20;;;;;;;17.24;100.00;99940.59;5007235;28;20499;-50
2023/08/09 02:40:01;;;;;;;0.40;0.20;;;;;;;17.28;100.00;99934.97;5006163;28;20834;-50
2023/08/09 02:42:27;;;;;;;0.40;0.20;;;;;;;17.29;100.00;99946.56;5007592;28;20843;-50
2023/08/09 02:44:54;;;;;;;0.40;0.20;;;;;;;17.18;100.00;99944.53;5001690;28;20562;-50
2023/08/09 02:47:20;;;;;;;0.40;0.20;;;;;;;17.11;100.00;99959.28;5013776;28;20491;-50
2023/08/09 02:49:47;;;;;;;0.40;0.20;;;;;;;17.10;100.00;99957.56;5001692;28;20528;-50
2023/08/09 02:52:13;;;;;;;0.40;0.20;;;;;;;17.07;100.00;99950.56;5000938;28;20460;-50
2023/08/09 02:54:39;;;;;;;0.40;0.20;;;;;;;17.08;100.00;99972.91;5006380;28;20488;-50
2023/08/09 02:57:10;;;;;;;0.40;0.20;;;;;;;17.08;100.00;99967.53;5007618;28;20942;-51
2023/08/09 02:59:36;;;;;;;0.40;0.20;;;;;;;17.10;100.00;99962.94;5002543;28;20483;-50
2023/08/09 03:02:03;;;;;;;0.40;0.20;;;;;;;17.08;100.00;99957.66;5000828;28;20511;-50
2023/08/09 03:04:30;;;;;;;0.40;0.20;;;;;;;17.18;100.00;99949.91;5005532;28;20500;-50
2023/08/09 03:06:56;;;;;;;0.40;0.20;;;;;;;17.16;100.00;99941.94;5007702;28;20452;-50
2023/08/09 03:09:23;;;;;;;0.40;0.20;;;;;;;17.06;100.00;99932.72;4997570;28;20538;-50
2023/08/09 03:11:49;;;;;;;0.40;0.20;;;;;;;16.99;100.00;99942.09;5007645;28;20845;-50
2023/08/09 03:14:16;;;;;;;0.40;0.20;;;;;;;16.95;100.00;99945.06;5002424;28;20448;-50
2023/08/09 03:16:42;;;;;;;0.40;0.20;;;;;;;16.91;100.00;99951.59;5000614;28;20449;-50
2023/08/09 03:19:09;;;;;;;0.40;0.20;;;;;;;17.03;100.00;99945.47;5005586;28;20540;-50
2023/08/09 03:21:35;;;;;;;0.40;0.20;;;;;;;16.91;100.00;99944.38;5007274;28;20472;-51
2023/08/09 03:24:02;;;;;;;0.40;0.20;;;;;;;16.89;100.00;99943.63;5002281;28;20456;-51
2023/08/09 03:26:28;;;;;;;0.40;0.30;;;;;;;16.88;100.00;99944.59;5000536;28;20536;-50
2023/08/09 03:28:55;;;;;;;0.40;0.20;;;;;;;16.90;100.00;99947.16;5005224;28;20571;-50
2023/08/09 03:31:21;;;;;;;0.40;0.20;;;;;;;16.90;100.00;99949.84;5007051;28;20483;-50
2023/08/09 03:33:48;;;;;;;0.40;0.20;;;;;;;16.88;100.00;99945.44;5002085;28;20456;-51
2023/08/09 03:36:14;;;;;;;0.40;0.20;;;;;;;17.00;100.00;99941.16;5000356;28;20448;-51
2023/08/09 03:38:41;;;;;;;0.40;0.20;;;;;;;17.01;100.00;99950.94;5010616;28;20450;-51
2023/08/09 03:41:07;;;;;;;0.40;0.20;;;;;;;17.09;100.00;99945.94;5000155;28;20477;-50
2023/08/09 03:43:35;;;;;;;0.40;0.20;;;;;;;17.11;100.00;99945.84;5004402;28;20532;-51
2023/08/09 03:46:04;;;;;;;0.40;0.20;;;;;;;17.11;100.00;99951.22;5009603;28;20531;-51
2023/08/09 03:48:31;;;;;;;0.40;0.20;;;;;;;17.11;100.00;99951.22;5003369;28;20576;-51
2023/08/09 03:50:57;;;;;;;0.40;0.20;;;;;;;17.11;100.00;99938.66;5006715;28;20447;-51
2023/08/09 03:53:23;;;;;;;0.40;0.20;;;;;;;17.20;100.00;99948.00;5003942;28;20452;-51
2023/08/09 03:55:51;;;;;;;0.40;0.20;;;;;;;17.21;100.00;99935.41;5000131;28;20539;-51
2023/08/09 03:58:17;;;;;;;0.40;0.20;;;;;;;17.24;100.00;99941.47;4992517;28;20926;-51
2023/08/09 04:00:44;;;;;;;0.40;0.20;;;;;;;17.22;100.00;99938.00;4994461;28;20472;-51
2023/08/09 04:03:10;;;;;;;0.40;0.20;;;;;;;17.20;100.00;99942.63;5002667;28;20449;-51
2023/08/09 04:05:37;;;;;;;0.40;0.20;;;;;;;17.14;100.00;99951.94;5006057;28;20453;-51
2023/08/09 04:08:04;;;;;;;0.40;0.20;;;;;;;17.21;100.00;99938.09;5004075;28;20492;-51
2023/08/09 04:10:31;;;;;;;0.40;0.20;;;;;;;17.23;100.00;99955.84;4999235;28;20475;-50
2023/08/09 04:12:58;;;;;;;0.40;0.20;;;;;;;17.26;100.00;99955.66;4990573;28;20541;-51
2023/08/09 04:15:24;;;;;;;0.40;0.20;;;;;;;17.24;100.00;99957.56;5004388;28;20980;-50
2023/08/09 04:17:50;;;;;;;0.40;0.20;;;;;;;17.13;100.00;99960.06;5004342;28;20479;-51
2023/08/09 04:20:19;;;;;;;0.40;0.20;;;;;;;17.16;100.00;99965.25;4999377;28;20475;-51
2023/08/09 04:22:46;;;;;;;0.40;0.20;;;;;;;17.05;100.00;99959.66;4989046;28;20453;-51
2023/08/09 04:25:12;;;;;;;0.40;0.20;;;;;;;17.04;100.00;99966.88;5005199;28;20455;-51
2023/08/09 04:27:39;;;;;;;0.40;0.20;;;;;;;17.08;100.00;99957.66;5004857;28;20579;-51
2023/08/09 04:30:09;;;;;;;0.40;0.20;;;;;;;16.90;100.00;99956.09;4999141;28;20559;-51
2023/08/09 04:32:37;;;;;;;0.40;0.20;;;;;;;16.84;100.00;99961.81;4999328;28;20967;-51
2023/08/09 04:35:04;;;;;;;0.40;0.20;;;;;;;16.92;100.00;99969.41;4987050;28;20550;-51
2023/08/09 04:37:31;;;;;;;0.40;0.20;;;;;;;16.92;100.00;99956.00;4999205;28;20828;-51
2023/08/09 04:39:58;;;;;;;0.40;0.20;;;;;;;16.96;100.00;99974.50;5005253;28;20477;-51
2023/08/09 04:42:24;;;;;;;0.40;0.20;;;;;;;16.88;100.00;99976.81;5005890;28;20483;-50
2023/08/09 04:44:51;;;;;;;0.40;0.20;;;;;;;16.90;100.00;99979.38;4999084;28;20535;-51
2023/08/09 04:47:17;;;;;;;0.40;0.20;;;;;;;17.05;100.00;99968.59;5012009;28;20860;-51
2023/08/09 04:49:43;;;;;;;0.40;0.20;;;;;;;17.34;100.00;99969.50;4999686;28;20472;-50
2023/08/09 04:52:10;;;;;;;0.40;0.20;;;;;;;17.21;100.00;99981.94;4999048;28;20796;-51
2023/08/09 04:54:36;;;;;;;0.40;0.20;;;;;;;17.11;100.00;99970.03;5004808;28;20457;-51
2023/08/09 04:57:03;;;;;;;0.40;0.20;;;;;;;17.50;100.00;99981.97;5005606;28;20531;-51
2023/08/09 04:59:31;;;;;;;0.40;0.20;;;;;;;17.44;100.00;99980.56;4999854;28;20448;-50
2023/08/09 05:01:57;;;;;;;0.40;0.20;;;;;;;17.63;100.00;99986.50;4999130;28;20536;-51
2023/08/09 05:04:24;;;;;;;0.40;0.20;;;;;;;17.57;100.00;99988.72;5004471;28;20540;-51
2023/08/09 05:06:52;;;;;;;0.40;0.20;;;;;;;17.52;100.00;99985.44;5005674;28;20463;-51
2023/08/09 05:09:18;;;;;;;0.40;0.20;;;;;;;17.61;100.00;99992.94;4995251;28;20497;-50
2023/08/09 05:11:45;;;;;;;0.40;0.20;;;;;;;17.56;100.00;99984.31;5005799;28;20449;-51
2023/08/09 05:14:11;;;;;;;0.40;0.30;;;;;;;17.58;100.00;99987.75;5000862;28;20518;-51
2023/08/09 05:16:37;;;;;;;0.40;0.20;;;;;;;17.70;100.00;99993.25;5000241;28;20428;-51
2023/08/09 05:19:04;;;;;;;0.40;0.20;;;;;;;17.80;100.00;99998.03;5007950;28;20516;-51
2023/08/09 05:21:30;;;;;;;0.40;0.20;;;;;;;17.91;100.00;99998.22;5009608;28;20529;-50
2023/08/09 05:23:57;;;;;;;0.40;0.20;;;;;;;17.95;100.00;100000.63;5004830;28;20828;-50
2023/08/09 05:26:23;;;;;;;0.40;0.20;;;;;;;17.93;100.00;100001.69;5002755;28;20459;-51
2023/08/09 05:28:50;;;;;;;0.40;0.20;;;;;;;17.83;100.00;100008.63;4998166;28;20576;-51
2023/08/09 05:31:17;;;;;;;0.40;0.20;;;;;;;17.80;100.00;100009.66;5005282;28;20923;-51
2023/08/09 05:33:43;;;;;;;0.40;0.20;;;;;;;17.71;100.00;100011.13;5005215;28;20445;-51
2023/08/09 05:36:10;;;;;;;0.40;0.20;;;;;;;17.76;100.00;100009.00;5002371;28;20449;-51
2023/08/09 05:38:36;;;;;;;0.40;0.20;;;;;;;17.79;100.00;100018.69;5011458;28;20448;-51
2023/08/09 05:41:03;;;;;;;0.40;0.20;;;;;;;17.75;100.00;100006.41;5002365;28;20524;-48
2023/08/09 05:43:29;;;;;;;0.40;0.20;;;;;;;17.75;100.00;100007.28;5006209;28;20489;-48
2023/08/09 05:45:55;;;;;;;0.40;0.20;;;;;;;17.72;100.00;100009.28;5011231;28;20455;-48
2023/08/09 05:48:22;;;;;;;0.40;0.20;;;;;;;17.73;100.00;100005.66;5006521;28;20528;-49
2023/08/09 05:50:49;;;;;;;0.40;0.20;;;;;;;17.67;100.00;100011.34;5008917;28;20997;-49
2023/08/09 05:53:15;;;;;;;0.40;0.20;;;;;;;17.68;100.00;100019.38;5005195;28;20540;-49
2023/08/09 05:55:42;;;;;;;0.40;0.20;;;;;;;17.72;100.00;100020.06;5002427;28;20461;-49
2023/08/09 05:58:08;;;;;;;0.40;0.20;;;;;;;17.71;100.00;100026.38;5006458;28;20492;-48
2023/08/09 06:00:35;;;;;;;0.40;0.20;;;;;;;17.76;100.00;100018.88;5009167;28;20508;-48
2023/08/09 06:03:02;;;;;;;0.40;0.20;;;;;;;17.73;100.00;100027.16;5005463;28;20451;-49
2023/08/09 06:05:29;;;;;;;0.40;0.20;;;;;;;17.88;100.00;100038.78;5002184;28;20455;-48
2023/08/09 06:07:55;;;;;;;0.50;0.40;;;;;;;17.78;100.00;100030.41;5005095;28;20485;-49
2023/08/09 06:10:23;;;;;;;0.40;0.20;;;;;;;17.84;100.00;100034.56;5001872;28;20554;-49
2023/08/09 06:12:50;;;;;;;0.40;0.20;;;;;;;17.82;100.00;100042.72;5004925;28;20454;-49
2023/08/09 06:15:17;;;;;;;0.40;0.20;;;;;;;18.08;100.00;100045.56;5008617;28;20438;-49
2023/08/09 06:17:43;;;;;;;0.40;0.20;;;;;;;18.01;100.00;100039.72;5004903;28;20459;-49
2023/08/09 06:20:14;;;;;;;0.40;0.20;;;;;;;17.96;100.00;100040.03;5001695;28;20892;-49
2023/08/09 06:22:41;;;;;;;0.40;0.20;;;;;;;18.03;100.00;100043.19;5004271;28;20439;-49
2023/08/09 06:25:09;;;;;;;0.40;0.20;;;;;;;18.03;100.00;100044.03;5008697;28;20481;-49
2023/08/09 06:27:36;;;;;;;0.40;0.20;;;;;;;17.99;100.00;100039.84;5006845;28;20449;-48
2023/08/09 06:30:04;;;;;;;0.40;0.20;;;;;;;18.13;100.00;100036.25;5001499;28;20862;-49
2023/08/09 06:32:30;;;;;;;0.40;0.20;;;;;;;18.35;100.00;100041.97;5003320;28;20457;-49
2023/08/09 06:34:56;;;;;;;0.40;0.20;;;;;;;18.41;100.00;100042.56;5008041;28;20523;-48
2023/08/09 06:37:23;;;;;;;0.40;0.20;;;;;;;18.52;100.00;100050.81;4995200;28;20986;-50
2023/08/09 06:39:49;;;;;;;0.40;0.20;;;;;;;18.52;100.00;100048.97;5008171;28;20470;-49
2023/08/09 06:42:16;;;;;;;0.40;0.20;;;;;;;18.68;100.00;100053.38;5008060;28;20456;-48
2023/08/09 06:44:43;;;;;;;0.40;0.20;;;;;;;18.72;100.00;100052.22;5000486;28;20496;-48
2023/08/09 06:47:11;;;;;;;0.40;0.20;;;;;;;19.06;100.00;100056.22;5013313;28;20803;-49
2023/08/09 06:49:37;;;;;;;0.40;0.20;;;;;;;19.00;100.00;100054.78;5000796;28;20496;-48
2023/08/09 06:52:04;;;;;;;0.40;0.20;;;;;;;19.18;100.00;100058.94;5002169;28;20484;-48
2023/08/09 06:54:31;;;;;;;0.40;0.20;;;;;;;19.04;100.00;100068.91;5007662;28;20424;-49
2023/08/09 06:56:57;;;;;;;0.40;0.20;;;;;;;18.96;100.00;100061.38;5007692;28;20431;-48
2023/08/09 06:59:23;;;;;;;0.40;0.20;;;;;;;19.11;100.00;100065.72;5000931;28;20472;-48
2023/08/09 07:01:50;;;;;;;0.40;0.20;;;;;;;19.13;100.00;100074.56;5001158;28;20553;-50
2023/08/09 07:04:17;;;;;;;0.40;0.20;;;;;;;19.01;100.00;100080.75;5001148;28;20459;-48
2023/08/09 07:06:44;;;;;;;0.40;0.20;;;;;;;18.99;100.00;100080.00;5001181;28;20449;-48
2023/08/09 07:09:12;;;;;;;0.40;0.20;;;;;;;19.01;100.00;100078.06;5006922;28;20488;-49
2023/08/09 07:11:39;;;;;;;0.40;0.20;;;;;;;19.18;100.00;100076.94;5007346;28;20469;-49
2023/08/09 07:14:06;;;;;;;0.40;0.20;;;;;;;19.14;100.00;100078.97;5001946;28;20453;-49
2023/08/09 07:16:32;;;;;;;0.40;0.20;;;;;;;19.02;100.00;100073.53;5000559;28;20456;-48
2023/08/09 07:18:59;;;;;;;0.40;0.20;;;;;;;19.06;100.00;100073.25;5005934;28;20456;-49
2023/08/09 07:21:27;;;;;;;0.40;0.20;;;;;;;19.04;100.00;100075.16;5007242;28;20500;-48
2023/08/09 07:23:54;;;;;;;0.40;0.20;;;;;;;19.01;100.00;100086.16;5002775;28;20860;-49
2023/08/09 07:26:24;;;;;;;0.40;0.20;;;;;;;19.06;100.00;100088.56;5000611;28;20432;-49
2023/08/09 07:28:50;;;;;;;0.40;0.20;;;;;;;19.16;100.00;100092.34;5004795;28;20472;-49
2023/08/09 07:31:18;;;;;;;0.40;0.20;;;;;;;19.48;100.00;100092.88;5007289;28;20571;-51
2023/08/09 07:33:45;;;;;;;0.40;0.20;;;;;;;19.45;100.00;100101.16;5002880;28;20460;-51
2023/08/09 07:36:11;;;;;;;0.40;0.20;;;;;;;19.20;100.00;100100.13;5000436;28;20499;-51
2023/08/09 07:38:38;;;;;;;0.40;0.20;;;;;;;19.11;100.00;100106.13;5009114;28;20855;-51
2023/08/09 07:41:04;;;;;;;0.40;0.20;;;;;;;19.09;100.00;100102.69;4999959;28;20442;-51
2023/08/09 07:43:31;;;;;;;0.40;0.20;;;;;;;19.21;100.00;100101.88;5003546;28;20540;-51
2023/08/09 07:45:57;;;;;;;0.40;0.20;;;;;;;19.40;100.00;100108.69;5008976;28;20449;-51
2023/08/09 07:48:25;;;;;;;0.40;0.20;;;;;;;19.22;100.00;100114.38;5004261;28;20485;-51
2023/08/09 07:50:52;;;;;;;0.40;0.20;;;;;;;19.14;100.00;100115.84;5006759;28;20532;-50
2023/08/09 07:53:18;;;;;;;0.40;0.20;;;;;;;19.19;100.00;100111.88;5003049;28;20950;-51
2023/08/09 07:55:44;;;;;;;0.40;0.20;;;;;;;19.35;100.00;100127.88;4999882;28;20847;-51
2023/08/09 07:58:11;;;;;;;0.40;0.20;;;;;;;19.48;100.00;100133.31;5003786;28;20548;-51
2023/08/09 08:00:37;;;;;;;0.40;0.20;;;;;;;19.33;100.00;100142.44;5006586;28;20473;-51
2023/08/09 08:03:16;;;;;;;0.40;0.20;;;;;;;19.25;100.00;100137.56;5004881;28;20456;-51
2023/08/09 08:05:43;;;;;;;0.40;0.20;;;;;;;19.30;100.00;100145.31;4999711;28;20526;-51
2023/08/09 08:08:14;;;;;;;0.40;0.20;;;;;;;19.40;100.00;100132.97;5002641;28;20453;-50
2023/08/09 08:10:41;;;;;;;0.40;0.20;;;;;;;19.44;100.00;100142.56;4999347;28;20528;-51
2023/08/09 08:13:07;;;;;;;0.40;0.20;;;;;;;19.38;100.00;100145.69;5000568;28;20540;-51
2023/08/09 08:15:36;;;;;;;0.40;0.20;;;;;;;19.34;100.00;100149.56;5006234;28;20462;-51
2023/08/09 08:18:04;;;;;;;0.40;0.20;;;;;;;19.62;100.00;100159.38;5006001;28;20459;-50
2023/08/09 08:20:32;;;;;;;0.40;0.20;;;;;;;19.40;100.00;100152.69;4987258;28;20974;-50
2023/08/09 08:22:59;;;;;;;0.40;0.20;;;;;;;19.58;100.00;100164.09;4999462;28;20974;-50
2023/08/09 08:25:25;;;;;;;0.40;0.20;;;;;;;19.58;100.00;100165.94;5005442;28;20492;-51
2023/08/09 08:27:52;;;;;;;0.40;0.20;;;;;;;19.76;100.00;100172.78;5006190;28;20465;-51
2023/08/09 08:30:20;;;;;;;0.40;0.20;;;;;;;19.42;100.00;100175.00;4999817;28;20579;-51
2023/08/09 08:32:48;;;;;;;0.40;0.20;;;;;;;19.51;100.00;100179.81;4999343;28;20809;-51
2023/08/09 08:35:19;;;;;;;0.40;0.20;;;;;;;19.53;100.00;100185.94;5004319;28;20473;-51
2023/08/09 08:37:48;;;;;;;0.40;0.20;;;;;;;19.21;100.00;100187.25;5005965;28;21010;-50
2023/08/09 08:40:20;;;;;;;0.40;0.20;;;;;;;19.10;100.00;100192.47;4991633;28;20474;-51
2023/08/09 08:42:48;;;;;;;0.40;0.20;;;;;;;19.02;100.00;100198.34;5003166;28;20557;-51
2023/08/09 08:45:15;;;;;;;0.40;0.20;;;;;;;18.99;100.00;100187.78;5002318;28;21023;-51
2023/08/09 08:47:46;;;;;;;0.40;0.20;;;;;;;18.91;100.00;100187.38;5008931;28;20449;-50
2023/08/09 08:50:14;;;;;;;0.40;0.20;;;;;;;19.29;100.00;100198.38;5003605;28;20546;-51
2023/08/09 08:52:44;;;;;;;0.40;0.20;;;;;;;19.23;100.00;100202.34;5003452;28;20455;-51
2023/08/09 08:55:12;;;;;;;0.40;0.20;;;;;;;19.54;100.00;100200.31;5005182;28;20532;-51
2023/08/09 08:57:40;;;;;;;0.40;0.20;;;;;;;19.85;100.00;100200.94;5009842;28;20460;-51
2023/08/09 09:00:15;;;;;;;0.40;0.20;;;;;;;19.92;100.00;100204.97;4996675;28;20561;-51
2023/08/09 09:02:52;;;;;;;0.40;0.20;;;;;;;20.25;99.70;100210.72;4993244;28;20452;-51
2023/08/09 09:05:19;;;;;;;0.40;0.20;;;;;;;20.40;98.95;100220.44;5003023;28;20453;-51
2023/08/09 09:07:50;;;;;;;0.40;0.20;;;;;;;20.20;98.89;100217.41;5008143;28;20894;-51
2023/08/09 09:10:19;;;;;;;0.40;0.20;;;;;;;20.50;98.81;100222.53;5002045;28;20493;-51
2023/08/09 09:12:49;;;;;;;0.40;0.20;;;;;;;20.46;98.46;100224.59;5006689;28;20983;-51
2023/08/09 09:15:17;;;;;;;0.40;0.20;;;;;;;20.64;96.06;100222.41;5009556;28;20503;-51
2023/08/09 09:17:45;;;;;;;0.40;0.20;;;;;;;20.43;94.23;100229.34;5007116;28;20452;-50
2023/08/09 09:23:27;;;;;;;0.40;0.20;;;;;;;21.02;93.23;100221.50;4997887;28;20467;-50
2023/08/09 09:26:02;;;;;;;0.40;0.20;;;;;;;21.17;92.91;100221.22;5004857;28;20434;-50
2023/08/09 09:28:29;;;;;;;0.40;0.20;;;;;;;20.99;92.60;100222.59;5009394;28;20427;-51
2023/08/09 09:30:57;;;;;;;0.40;0.20;;;;;;;20.70;92.64;100217.44;5007104;28;20455;-51
2023/08/09 09:33:34;;;;;;;0.40;0.20;;;;;;;20.68;92.04;100215.81;5002391;28;20452;-50
2023/08/09 09:36:03;;;;;;;0.40;0.20;;;;;;;21.04;89.98;100215.00;5002545;28;20531;-51
2023/08/09 09:38:30;;;;;;;0.40;0.20;;;;;;;21.37;89.43;100224.31;5012244;28;20522;-51
2023/08/09 09:40:57;;;;;;;0.40;0.20;;;;;;;21.54;90.00;100219.38;5002510;28;20474;-51
2023/08/09 09:43:26;;;;;;;0.40;0.20;;;;;;;21.26;89.54;100220.59;5007639;28;20823;-51
2023/08/09 09:45:56;;;;;;;0.40;0.20;;;;;;;21.32;90.36;100226.50;5010685;28;20419;-50
2023/08/09 09:48:23;;;;;;;0.40;0.20;;;;;;;21.19;88.80;100221.97;5006710;28;20449;-51
2023/08/09 09:50:50;;;;;;;0.40;0.20;;;;;;;21.52;88.60;100221.34;5008487;28;20517;-51
2023/08/09 09:53:18;;;;;;;0.40;0.20;;;;;;;21.50;85.99;100223.28;5004809;28;20477;-51
2023/08/09 09:55:46;;;;;;;0.40;0.20;;;;;;;21.56;85.71;100224.69;5002254;28;20886;-51
2023/08/09 09:58:12;;;;;;;0.40;0.20;;;;;;;21.56;84.42;100216.56;5006242;28;20540;-51
2023/08/09 10:00:49;;;;;;;0.40;0.20;;;;;;;21.58;84.39;100222.72;5005856;28;20441;-51
2023/08/09 10:03:21;;;;;;;0.40;0.20;;;;;;;21.71;82.81;100218.09;4986326;28;20830;-50
2023/08/09 10:05:49;;;;;;;0.40;0.20;;;;;;;21.89;84.48;100226.66;5008788;28;20420;-51
2023/08/09 10:08:17;;;;;;;0.40;0.20;;;;;;;21.80;83.63;100220.13;5007338;28;20502;-51
2023/08/09 10:10:47;;;;;;;0.40;0.20;;;;;;;21.85;83.35;100214.34;5001821;28;20471;-51
2023/08/09 10:13:20;;;;;;;0.40;0.20;;;;;;;21.71;82.85;100231.63;4990237;28;20508;-51
2023/08/09 10:15:51;;;;;;;0.40;0.20;;;;;;;21.48;84.43;100230.66;5007831;28;20537;-51
2023/08/09 10:18:29;;;;;;;0.40;0.20;;;;;;;21.49;84.44;100239.63;5008697;28;20443;-51
2023/08/09 10:20:59;;;;;;;0.40;0.20;;;;;;;21.65;84.08;100240.19;5003363;28;20569;-51
2023/08/09 10:23:29;;;;;;;0.40;0.20;;;;;;;21.10;86.80;100235.28;5001605;28;20452;-50
2023/08/09 10:25:56;;;;;;;0.50;0.20;;;;;;;21.07;90.06;100240.94;5004926;28;20426;-51
2023/08/09 10:28:38;;;;;;;0.40;0.20;;;;;;;21.45;88.99;100236.31;5008066;28;20432;-51
2023/08/09 10:31:05;;;;;;;0.40;0.20;;;;;;;21.52;88.67;100234.00;5007757;28;20998;-51
2023/08/09 10:33:32;;;;;;;0.40;0.20;;;;;;;21.49;86.47;100243.19;5001454;28;20484;-51
2023/08/09 10:35:58;;;;;;;0.40;0.20;;;;;;;21.73;85.44;100245.06;5001701;28;20428;-51
2023/08/09 10:38:31;;;;;;;0.40;0.20;;;;;;;21.62;85.55;100243.16;4988521;28;20913;-51
2023/08/09 10:41:10;;;;;;;0.47;0.20;;;;;;;21.70;89.88;100238.03;5001517;28;20440;-51
2023/08/09 10:43:37;;;;;;;0.40;0.20;;;;;;;21.78;90.56;100237.44;5005067;28;20448;-51
2023/08/09 10:46:20;;;;;;;0.40;0.20;;;;;;;21.55;88.05;100241.91;5006906;28;20538;-51
2023/08/09 10:48:49;;;;;;;0.40;0.20;;;;;;;22.56;85.80;100244.94;5006824;28;20923;-51
2023/08/09 10:51:15;;;;;;;0.40;0.20;;;;;;;21.64;86.80;100235.78;5001210;28;20462;-51
2023/08/09 10:53:58;;;;;;;0.40;0.20;;;;;;;22.01;87.68;100243.81;5001902;28;20453;-51
2023/08/09 10:56:43;;;;;;;0.50;0.20;;;;;;;22.54;84.46;100242.38;4991871;28;20484;-51
2023/08/09 10:59:24;;;;;;;0.40;0.20;;;;;;;22.56;83.89;100247.66;5000861;28;20970;-51
2023/08/09 11:01:51;;;;;;;0.40;0.30;;;;;;;22.37;83.12;100256.38;5001606;28;20456;-51
2023/08/09 11:04:18;;;;;;;0.50;0.30;;;;;;;22.54;81.48;100252.34;5007956;28;20480;-51
2023/08/09 11:06:47;;;;;;;0.40;0.20;;;;;;;22.15;83.12;100252.63;5007820;28;20437;-51
2023/08/09 11:09:16;;;;;;;0.43;0.20;;;;;;;22.02;83.36;100248.25;5007428;28;20559;-51
2023/08/09 11:11:44;;;;;;;0.40;0.20;;;;;;;22.20;83.06;100251.41;5007635;28;20979;-51
2023/08/09 11:14:13;;;;;;;0.40;0.20;;;;;;;22.28;83.14;100259.81;5001273;28;20517;-51
2023/08/09 11:16:40;;;;;;;0.40;0.20;;;;;;;22.14;82.93;100258.16;5000990;28;20436;-51
2023/08/09 11:19:14;;;;;;;0.40;0.20;;;;;;;21.85;83.62;100266.63;5005793;28;20480;-51
2023/08/09 11:21:58;;;;;;;0.50;0.20;;;;;;;22.22;83.04;100261.16;5007718;28;20452;-50
2023/08/09 11:24:24;;;;;;;0.40;0.20;;;;;;;22.23;85.50;100260.16;5005774;28;20601;-51
2023/08/09 11:26:56;;;;;;;0.40;0.30;;;;;;;22.47;81.03;100263.66;5000736;28;21017;-51
2023/08/09 11:29:24;;;;;;;0.40;0.20;;;;;;;22.77;80.60;100265.81;5001422;28;20551;-51